createdAt,value
2022-08-22T00:01:20.535Z,2.00
2022-08-22T00:02:44.826Z,1.90
2022-08-22T00:02:52.898Z,1.63
2022-08-22T00:02:57.786Z,2.05
2022-08-22T00:04:14.252Z,2.00
2022-08-22T00:06:48.961Z,2.10
2022-08-22T00:09:29.447Z,2.28
2022-08-22T00:12:03.958Z,2.60
2022-08-22T00:15:02.155Z,2.30
2022-08-22T00:17:55.877Z,2.33
2022-08-22T00:20:54.537Z,2.05
2022-08-22T00:23:59.859Z,2.10
2022-08-22T00:26:45.479Z,2.08
2022-08-22T00:29:47.635Z,2.17
2022-08-22T00:32:35.351Z,2.25
2022-08-22T00:35:14.972Z,2.20
2022-08-22T00:37:46.058Z,1.90
2022-08-22T00:40:38.726Z,1.90
2022-08-22T00:43:30.113Z,2.50
2022-08-22T00:46:26.574Z,2.08
2022-08-22T00:48:56.050Z,2.22
2022-08-22T00:51:40.192Z,2.33
2022-08-22T00:54:34.332Z,2.35
2022-08-22T00:57:06.615Z,2.60
2022-08-22T00:59:52.040Z,2.45
2022-08-22T01:02:40.875Z,2.75
2022-08-22T01:05:22.628Z,2.22
2022-08-22T01:10:33.390Z,2.65
2022-08-22T01:13:12.876Z,2.72
2022-08-22T01:15:42.527Z,2.35
2022-08-22T01:18:19.950Z,2.40
2022-08-22T01:21:46.583Z,2.50
2022-08-22T01:24:24.216Z,2.50
2022-08-22T01:26:56.900Z,2.30
2022-08-22T01:29:55.182Z,2.70
2022-08-22T01:32:47.349Z,2.53
2022-08-22T01:35:13.819Z,2.88
2022-08-22T01:38:04.978Z,2.40
2022-08-22T01:40:53.334Z,2.47
2022-08-22T01:44:00.728Z,2.60
2022-08-22T01:46:42.956Z,2.20
2022-08-22T01:52:18.752Z,2.47
2022-08-22T01:55:03.154Z,2.78
2022-08-22T01:57:29.768Z,2.70
2022-08-22T02:00:08.663Z,2.60
2022-08-22T02:02:41.254Z,2.53
2022-08-22T02:05:17.211Z,2.40
2022-08-22T02:08:00.493Z,2.30
2022-08-22T02:11:04.410Z,2.47
2022-08-22T02:13:55.423Z,2.50
2022-08-22T02:16:31.135Z,2.15
2022-08-22T02:19:20.044Z,2.30
2022-08-22T02:21:53.502Z,2.20
2022-08-22T02:24:32.899Z,2.78
2022-08-22T02:27:17.555Z,2.75
2022-08-22T02:29:57.862Z,2.50
2022-08-22T02:32:36.484Z,2.50
2022-08-22T02:35:06.565Z,2.40
2022-08-22T02:37:47.007Z,2.40
2022-08-22T02:40:28.131Z,2.83
2022-08-22T02:43:18.060Z,2.30
2022-08-22T02:45:49.437Z,2.20
2022-08-22T02:48:34.076Z,2.60
2022-08-22T02:51:17.159Z,2.50
2022-08-22T02:53:52.651Z,2.30
2022-08-22T02:56:25.052Z,2.50
2022-08-22T02:58:59.999Z,2.30
2022-08-22T03:01:33.278Z,2.53
2022-08-22T03:04:32.246Z,2.53
2022-08-22T03:07:01.626Z,2.63
2022-08-22T03:09:37.540Z,2.35
2022-08-22T03:12:38.452Z,2.78
2022-08-22T03:15:13.275Z,2.20
2022-08-22T03:17:47.621Z,2.78
2022-08-22T03:20:35.434Z,2.42
2022-08-22T03:23:13.186Z,2.72
2022-08-22T03:25:50.748Z,2.28
2022-08-22T03:28:22.396Z,2.33
2022-08-22T03:33:27.522Z,2.58
2022-08-22T03:36:06.544Z,3.08
2022-08-22T03:38:33.056Z,2.70
2022-08-22T03:41:17.976Z,2.85
2022-08-22T03:44:04.538Z,2.80
2022-08-22T03:46:57.474Z,3.17
2022-08-22T03:49:52.988Z,3.22
2022-08-22T03:53:10.446Z,2.95
2022-08-22T03:55:51.696Z,2.95
2022-08-22T03:58:33.574Z,2.97
2022-08-22T04:04:19.117Z,3.08
2022-08-22T04:06:59.382Z,3.33
2022-08-22T04:10:07.971Z,2.72
2022-08-22T04:12:59.374Z,3.67
2022-08-22T04:16:12.522Z,3.00
2022-08-22T04:19:09.480Z,2.92
2022-08-22T04:21:56.191Z,2.70
2022-08-22T04:24:44.091Z,2.90
2022-08-22T04:27:31.439Z,3.28
2022-08-22T04:30:16.161Z,3.50
2022-08-22T04:32:57.025Z,3.78
2022-08-22T04:35:29.560Z,3.30
2022-08-22T04:38:04.292Z,3.60
2022-08-22T04:40:42.756Z,3.30
2022-08-22T04:43:17.238Z,4.00
2022-08-22T04:45:48.707Z,2.80
2022-08-22T04:48:15.944Z,2.97
2022-08-22T04:50:53.224Z,3.38
2022-08-22T04:53:42.216Z,3.30
2022-08-22T04:56:33.115Z,3.40
2022-08-22T04:59:17.150Z,2.80
2022-08-22T05:02:07.071Z,2.95
2022-08-22T05:04:43.315Z,3.20
2022-08-22T05:07:18.339Z,3.17
2022-08-22T05:09:56.449Z,3.17
2022-08-22T05:12:32.886Z,3.25
2022-08-22T05:15:22.890Z,3.10
2022-08-22T05:17:52.774Z,2.97
2022-08-22T05:20:23.251Z,2.70
2022-08-22T05:23:00.259Z,2.88
2022-08-22T05:25:31.306Z,3.00
2022-08-22T05:28:23.902Z,3.00
2022-08-22T05:30:51.275Z,3.05
2022-08-22T05:33:39.186Z,2.53
2022-08-22T05:36:33.116Z,3.00
2022-08-22T05:39:21.568Z,2.88
2022-08-22T05:41:52.468Z,2.72
2022-08-22T05:44:27.943Z,2.40
2022-08-22T05:47:05.421Z,2.83
2022-08-22T05:49:31.930Z,3.22
2022-08-22T05:52:22.986Z,3.13
2022-08-22T05:55:05.094Z,3.10
2022-08-22T05:57:37.005Z,3.03
2022-08-22T06:00:11.276Z,2.80
2022-08-22T06:03:06.071Z,2.95
2022-08-22T06:05:39.034Z,3.00
2022-08-22T06:08:21.253Z,2.70
2022-08-22T06:10:53.010Z,3.20
2022-08-22T06:13:30.025Z,3.03
2022-08-22T06:16:21.379Z,2.67
2022-08-22T06:18:50.560Z,2.70
2022-08-22T06:21:38.475Z,2.75
2022-08-22T06:24:12.990Z,2.75
2022-08-22T06:26:46.073Z,2.80
2022-08-22T06:29:22.130Z,3.00
2022-08-22T06:31:49.067Z,2.60
2022-08-22T06:34:23.595Z,2.47
2022-08-22T06:36:52.539Z,2.60
2022-08-22T06:39:24.208Z,2.67
2022-08-22T06:42:05.903Z,2.72
2022-08-22T06:47:08.340Z,2.60
2022-08-22T06:49:37.622Z,3.00
2022-08-22T06:52:14.835Z,2.60
2022-08-22T06:54:46.597Z,2.33
2022-08-22T06:57:35.939Z,2.83
2022-08-22T07:00:08.573Z,2.50
2022-08-22T07:02:42.488Z,2.50
2022-08-22T07:05:36.916Z,2.58
2022-08-22T07:08:15.975Z,2.50
2022-08-22T07:10:45.489Z,2.47
2022-08-22T07:13:19.598Z,2.65
2022-08-22T07:15:54.444Z,2.90
2022-08-22T07:18:25.643Z,2.55
2022-08-22T07:20:57.039Z,2.97
2022-08-22T07:23:48.054Z,3.90
2022-08-22T07:26:25.723Z,4.40
2022-08-22T07:29:10.850Z,4.22
2022-08-22T07:31:53.455Z,5.80
2022-08-22T07:34:44.734Z,5.47
2022-08-22T07:37:39.793Z,4.53
2022-08-22T07:40:41.755Z,3.78
2022-08-22T07:43:20.012Z,3.97
2022-08-22T07:45:58.715Z,4.20
2022-08-22T07:49:13.023Z,3.70
2022-08-22T07:51:50.675Z,3.58
2022-08-22T07:54:27.366Z,3.85
2022-08-22T07:57:00.136Z,3.40
2022-08-22T07:59:28.513Z,3.95
2022-08-22T08:01:58.645Z,3.10
2022-08-22T08:04:38.085Z,2.90
2022-08-22T08:07:10.577Z,2.90
2022-08-22T08:09:50.453Z,3.08
2022-08-22T08:12:21.959Z,3.22
2022-08-22T08:14:53.428Z,3.25
2022-08-22T08:19:51.891Z,3.08
2022-08-22T08:22:26.821Z,3.20
2022-08-22T08:24:59.905Z,2.78
2022-08-22T08:27:57.992Z,3.33
2022-08-22T08:30:36.599Z,2.97
2022-08-22T08:33:24.626Z,2.80
2022-08-22T08:36:03.533Z,3.00
2022-08-22T08:38:57.540Z,2.50
2022-08-22T08:41:47.022Z,2.90
2022-08-22T08:44:27.116Z,2.70
2022-08-22T08:47:20.731Z,3.00
2022-08-22T08:50:10.308Z,2.90
2022-08-22T08:52:58.594Z,3.17
2022-08-22T08:55:30.998Z,3.08
2022-08-22T08:58:03.279Z,2.78
2022-08-22T09:00:45.768Z,3.00
2022-08-22T09:03:54.201Z,2.78
2022-08-22T09:06:45.068Z,2.30
2022-08-22T09:09:38.392Z,2.47
2022-08-22T09:12:15.591Z,2.10
2022-08-22T09:14:44.716Z,2.70
2022-08-22T09:17:17.472Z,2.95
2022-08-22T09:19:59.694Z,2.90
2022-08-22T09:22:52.448Z,2.78
2022-08-22T09:25:27.903Z,2.90
2022-08-22T09:28:23.249Z,2.60
2022-08-22T09:33:35.188Z,2.80
2022-08-22T09:36:19.877Z,2.50
2022-08-22T09:39:09.594Z,2.33
2022-08-22T09:42:06.839Z,2.38
2022-08-22T09:44:40.805Z,2.58
2022-08-22T09:47:35.103Z,2.35
2022-08-22T09:50:13.697Z,2.60
2022-08-22T09:52:54.693Z,2.45
2022-08-22T09:55:44.983Z,2.47
2022-08-22T09:58:15.472Z,2.55
2022-08-22T10:00:55.605Z,2.53
2022-08-22T10:03:24.812Z,2.90
2022-08-22T10:06:02.516Z,3.55
2022-08-22T10:08:39.636Z,3.67
2022-08-22T10:11:28.828Z,2.30
2022-08-22T10:14:43.636Z,3.08
2022-08-22T10:17:21.823Z,2.40
2022-08-22T10:19:59.088Z,2.53
2022-08-22T10:23:05.386Z,2.47
2022-08-22T10:25:42.298Z,2.10
2022-08-22T10:28:32.958Z,1.60
2022-08-22T10:31:05.415Z,1.70
2022-08-22T10:33:39.794Z,1.42
2022-08-22T10:36:59.496Z,1.90
2022-08-22T10:39:32.583Z,1.98
2022-08-22T10:42:23.181Z,1.80
2022-08-22T10:45:12.976Z,2.10
2022-08-22T10:47:52.965Z,6.32
2022-08-22T10:50:32.731Z,2.50
2022-08-22T10:53:23.354Z,2.33
2022-08-22T10:56:04.367Z,1.77
2022-08-22T10:58:38.949Z,2.08
2022-08-22T11:01:37.027Z,1.92
2022-08-22T11:04:46.097Z,1.70
2022-08-22T11:07:41.403Z,1.55
2022-08-22T11:10:34.849Z,1.40
2022-08-22T11:13:42.166Z,1.42
2022-08-22T11:16:24.138Z,1.10
2022-08-22T11:19:15.274Z,1.35
2022-08-22T11:22:00.112Z,1.25
2022-08-22T11:24:35.665Z,0.80
2022-08-22T11:27:17.721Z,1.30
2022-08-22T11:30:18.753Z,1.08
2022-08-22T11:33:10.255Z,1.00
2022-08-22T11:36:15.671Z,1.80
2022-08-22T11:38:54.126Z,1.40
2022-08-22T11:41:36.436Z,1.50
2022-08-22T11:44:07.099Z,1.40
2022-08-22T11:46:44.421Z,0.98
2022-08-22T11:49:26.817Z,1.02
2022-08-22T11:52:17.884Z,1.50
2022-08-22T11:54:59.785Z,1.17
2022-08-22T11:57:41.832Z,1.10
2022-08-22T12:00:20.871Z,1.10
2022-08-22T12:03:26.268Z,0.93
2022-08-22T12:05:58.799Z,0.95
2022-08-22T12:08:51.990Z,1.30
2022-08-22T12:11:33.327Z,1.30
2022-08-22T12:16:59.886Z,1.00
2022-08-22T12:20:12.556Z,1.00
2022-08-22T12:23:00.670Z,1.00
2022-08-22T12:25:56.729Z,0.93
2022-08-22T12:28:36.123Z,1.05
2022-08-22T12:31:34.839Z,0.85
2022-08-22T12:34:20.871Z,0.98
2022-08-22T12:37:15.629Z,1.00
2022-08-22T12:40:17.733Z,1.00
2022-08-22T12:43:14.284Z,0.85
2022-08-22T12:46:13.133Z,1.13
2022-08-22T12:49:13.043Z,1.50
2022-08-22T12:51:59.864Z,1.23
2022-08-22T12:54:48.665Z,0.73
2022-08-22T12:57:27.424Z,1.10
2022-08-22T12:59:59.737Z,0.88
2022-08-22T13:02:34.668Z,0.85
2022-08-22T13:05:20.639Z,0.98
2022-08-22T13:08:17.511Z,0.73
2022-08-22T13:11:01.998Z,0.90
2022-08-22T13:13:37.177Z,0.85
2022-08-22T13:16:08.980Z,1.10
2022-08-22T13:19:07.370Z,0.85
2022-08-22T13:21:43.389Z,1.00
2022-08-22T13:24:16.783Z,1.05
2022-08-22T13:26:51.268Z,1.00
2022-08-22T13:29:42.698Z,1.35
2022-08-22T13:32:23.417Z,1.10
2022-08-22T13:34:56.539Z,0.90
2022-08-22T13:37:29.859Z,0.90
2022-08-22T13:40:02.162Z,1.58
2022-08-22T13:42:31.856Z,1.25
2022-08-22T13:45:04.790Z,1.15
2022-08-22T13:47:35.858Z,0.90
2022-08-22T13:50:14.772Z,0.93
2022-08-22T13:52:52.406Z,1.15
2022-08-22T13:55:35.191Z,0.80
2022-08-22T13:58:11.097Z,1.13
2022-08-22T14:00:57.305Z,1.30
2022-08-22T14:03:35.057Z,1.08
2022-08-22T14:06:35.206Z,1.15
2022-08-22T14:09:09.298Z,1.30
2022-08-22T14:12:00.251Z,0.90
2022-08-22T14:14:32.066Z,1.05
2022-08-22T14:16:59.665Z,0.77
2022-08-22T14:19:32.063Z,0.77
2022-08-22T14:22:32.079Z,0.85
2022-08-22T14:25:18.642Z,1.10
2022-08-22T14:27:56.110Z,1.25
2022-08-22T14:30:28.387Z,1.30
2022-08-22T14:33:18.235Z,1.13
2022-08-22T14:35:52.848Z,1.13
2022-08-22T14:38:35.588Z,0.80
2022-08-22T14:41:55.585Z,1.13
2022-08-22T14:44:31.246Z,0.95
2022-08-22T14:47:03.701Z,1.10
2022-08-22T14:49:48.960Z,1.00
2022-08-22T14:52:36.000Z,1.10
2022-08-22T14:55:08.323Z,1.13
2022-08-22T14:57:41.281Z,1.00
2022-08-22T15:00:13.698Z,1.55
2022-08-22T15:02:41.893Z,1.20
2022-08-22T15:05:19.870Z,1.02
2022-08-22T15:07:56.537Z,1.10
2022-08-22T15:10:33.220Z,1.05
2022-08-22T15:13:07.936Z,1.00
2022-08-22T15:15:41.088Z,0.90
2022-08-22T15:18:28.194Z,1.13
2022-08-22T15:21:12.406Z,1.20
2022-08-22T15:23:45.026Z,1.40
2022-08-22T15:26:23.099Z,1.05
2022-08-22T15:28:57.727Z,1.20
2022-08-22T15:31:24.982Z,1.05
2022-08-22T15:33:52.518Z,1.10
2022-08-22T15:36:26.084Z,1.00
2022-08-22T15:38:56.607Z,1.60
2022-08-22T15:41:36.135Z,1.67
2022-08-22T15:44:14.818Z,1.30
2022-08-22T15:46:57.679Z,0.90
2022-08-22T15:49:27.785Z,1.30
2022-08-22T15:52:03.465Z,1.50
2022-08-22T15:54:51.258Z,1.23
2022-08-22T15:57:31.865Z,1.05
2022-08-22T16:00:00.159Z,1.05
2022-08-22T16:02:53.191Z,1.10
2022-08-22T16:05:36.078Z,1.00
2022-08-22T16:08:25.866Z,1.00
2022-08-22T16:11:14.236Z,1.00
2022-08-22T16:13:44.223Z,0.90
2022-08-22T16:16:42.979Z,0.80
2022-08-22T16:19:17.307Z,1.15
2022-08-22T16:21:43.773Z,1.10
2022-08-22T16:24:10.209Z,1.00
2022-08-22T16:26:39.739Z,1.00
2022-08-22T16:29:17.538Z,1.20
2022-08-22T16:31:44.653Z,1.35
2022-08-22T16:34:17.313Z,1.20
2022-08-22T16:37:08.280Z,1.20
2022-08-22T16:39:41.087Z,1.05
2022-08-22T16:42:13.671Z,0.90
2022-08-22T16:44:47.383Z,1.10
2022-08-22T16:47:19.196Z,1.20
2022-08-22T16:49:51.674Z,1.10
2022-08-22T16:52:24.107Z,1.05
2022-08-22T16:55:01.341Z,1.08
2022-08-22T16:58:09.620Z,1.20
2022-08-22T17:00:36.378Z,1.15
2022-08-22T17:03:21.470Z,1.30
2022-08-22T17:05:56.794Z,1.00
2022-08-22T17:08:47.325Z,1.30
2022-08-22T17:11:51.399Z,1.35
2022-08-22T17:14:48.939Z,1.00
2022-08-22T17:17:24.520Z,0.95
2022-08-22T17:20:08.015Z,1.58
2022-08-22T17:22:58.054Z,1.88
2022-08-22T17:25:31.080Z,1.80
2022-08-22T17:28:34.326Z,1.70
2022-08-22T17:31:12.880Z,2.45
2022-08-22T17:33:52.056Z,1.83
2022-08-22T17:36:34.212Z,1.70
2022-08-22T17:39:32.255Z,1.65
2022-08-22T17:42:20.876Z,1.88
2022-08-22T17:45:05.848Z,2.03
2022-08-22T17:47:41.434Z,1.90
2022-08-22T17:50:18.785Z,1.83
2022-08-22T17:52:51.035Z,2.00
2022-08-22T17:55:52.626Z,2.10
2022-08-22T17:58:37.969Z,1.77
2022-08-22T18:01:35.240Z,1.80
2022-08-22T18:04:06.424Z,2.35
2022-08-22T18:06:47.037Z,1.92
2022-08-22T18:09:46.319Z,1.77
2022-08-22T18:12:39.373Z,2.00
2022-08-22T18:15:13.788Z,1.92
2022-08-22T18:17:51.730Z,2.10
2022-08-22T18:20:37.721Z,1.98
2022-08-22T18:23:21.805Z,1.70
2022-08-22T18:26:15.719Z,2.10
2022-08-22T18:29:20.110Z,1.83
2022-08-22T18:32:05.228Z,1.70
2022-08-22T18:34:51.151Z,2.03
2022-08-22T18:37:32.940Z,2.00
2022-08-22T18:40:11.250Z,1.80
2022-08-22T18:43:18.236Z,2.00
2022-08-22T18:45:47.506Z,1.83
2022-08-22T18:48:31.695Z,2.00
2022-08-22T18:51:24.287Z,2.22
2022-08-22T18:53:54.260Z,2.15
2022-08-22T18:56:42.479Z,2.17
2022-08-22T18:59:42.974Z,2.00
2022-08-22T19:02:21.520Z,2.47
2022-08-22T19:04:57.306Z,1.95
2022-08-22T19:07:42.345Z,2.25
2022-08-22T19:11:00.207Z,1.60
2022-08-22T19:14:08.412Z,2.10
2022-08-22T19:16:46.824Z,2.33
2022-08-22T19:19:17.296Z,2.22
2022-08-22T19:22:21.818Z,2.30
2022-08-22T19:25:12.533Z,2.20
2022-08-22T19:27:44.648Z,2.60
2022-08-22T19:30:34.429Z,2.80
2022-08-22T19:33:08.751Z,2.30
2022-08-22T19:35:49.631Z,2.40
2022-08-22T19:38:54.123Z,2.22
2022-08-22T19:41:58.484Z,2.30
2022-08-22T19:45:00.409Z,2.35
2022-08-22T19:47:49.908Z,2.33
2022-08-22T19:50:16.378Z,2.38
2022-08-22T19:52:56.851Z,2.10
2022-08-22T19:55:26.661Z,2.40
2022-08-22T19:58:03.974Z,1.92
2022-08-22T20:01:07.326Z,2.40
2022-08-22T20:03:53.474Z,2.30
2022-08-22T20:06:45.071Z,2.15
2022-08-22T20:12:15.484Z,2.55
2022-08-22T20:14:46.172Z,2.33
2022-08-22T20:17:24.977Z,2.67
2022-08-22T20:22:45.341Z,2.60
2022-08-22T20:25:43.006Z,2.70
2022-08-22T20:28:29.721Z,2.38
2022-08-22T20:31:00.025Z,2.80
2022-08-22T20:33:40.021Z,2.05
2022-08-22T20:36:27.293Z,2.70
2022-08-22T20:39:02.120Z,2.40
2022-08-22T20:41:34.262Z,2.72
2022-08-22T20:44:17.212Z,2.60
2022-08-22T20:46:57.537Z,2.60
2022-08-22T20:49:32.030Z,2.78
2022-08-22T20:52:08.029Z,2.67
2022-08-22T20:54:38.067Z,2.40
2022-08-22T20:57:16.194Z,2.78
2022-08-22T20:59:50.739Z,2.65
2022-08-22T21:02:49.701Z,3.03
2022-08-22T21:05:18.331Z,2.80
2022-08-22T21:07:47.663Z,2.85
2022-08-22T21:10:37.566Z,3.00
2022-08-22T21:13:08.707Z,2.40
2022-08-22T21:15:58.587Z,2.90
2022-08-22T21:18:45.954Z,2.70
2022-08-22T21:21:31.000Z,2.40
2022-08-22T21:24:01.406Z,2.60
2022-08-22T21:26:39.223Z,2.67
2022-08-22T21:29:19.188Z,2.60
2022-08-22T21:31:49.928Z,2.70
2022-08-22T21:34:24.354Z,2.90
2022-08-22T21:36:53.189Z,2.78
2022-08-22T21:39:22.524Z,2.88
2022-08-22T21:42:10.084Z,2.70
2022-08-22T21:44:40.471Z,2.40
2022-08-22T21:47:30.957Z,2.78
2022-08-22T21:49:59.272Z,2.93
2022-08-22T21:52:27.336Z,2.80
2022-08-22T21:54:53.940Z,2.60
2022-08-22T21:57:34.478Z,2.63
2022-08-22T22:00:01.707Z,2.60
2022-08-22T22:02:31.145Z,2.70
2022-08-22T22:04:58.776Z,2.72
2022-08-22T22:07:26.962Z,2.90
2022-08-22T22:09:54.985Z,2.55
2022-08-22T22:12:23.390Z,2.58
2022-08-22T22:14:50.337Z,3.67
2022-08-22T22:17:18.899Z,2.75
2022-08-22T22:19:46.856Z,2.63
2022-08-22T22:22:13.507Z,2.17
2022-08-22T22:24:40.101Z,2.30
2022-08-22T22:27:07.201Z,2.42
2022-08-22T22:29:34.718Z,2.45
2022-08-22T22:32:01.400Z,2.40
2022-08-22T22:34:27.943Z,2.22
2022-08-22T22:36:54.946Z,2.80
2022-08-22T22:39:21.761Z,2.28
2022-08-22T22:41:49.061Z,2.50
2022-08-22T22:44:15.771Z,2.53
2022-08-22T22:46:42.312Z,2.35
2022-08-22T22:49:08.850Z,2.45
2022-08-22T22:51:35.381Z,2.55
2022-08-22T22:54:01.856Z,2.70
2022-08-22T22:56:28.569Z,1.92
2022-08-22T22:58:59.069Z,2.20
2022-08-22T23:01:27.885Z,2.40
2022-08-22T23:04:03.252Z,2.10
2022-08-22T23:06:33.083Z,2.42
2022-08-22T23:08:59.728Z,2.60
2022-08-22T23:11:30.961Z,2.50
2022-08-22T23:13:57.601Z,2.53
2022-08-22T23:16:27.888Z,2.63
2022-08-22T23:18:55.257Z,2.30
2022-08-22T23:21:26.467Z,2.42
2022-08-22T23:23:56.134Z,2.40
2022-08-22T23:26:22.825Z,2.47
2022-08-22T23:28:49.453Z,2.10
2022-08-22T23:31:40.981Z,2.22
2022-08-22T23:34:13.753Z,2.38
2022-08-22T23:36:43.778Z,2.40
2022-08-22T23:39:10.963Z,2.13
2022-08-22T23:41:38.317Z,2.10
2022-08-22T23:44:07.026Z,2.10
2022-08-22T23:46:35.995Z,2.47
2022-08-22T23:49:04.154Z,2.30
2022-08-22T23:51:31.015Z,2.05
2022-08-22T23:53:59.250Z,2.10
2022-08-22T23:56:27.794Z,1.90
2022-08-22T23:58:54.385Z,1.92
